createdAt,value
2022-09-15T00:00:55.816Z,13.54
2022-09-15T00:03:28.790Z,13.51
2022-09-15T00:06:00.316Z,13.48
2022-09-15T00:08:32.265Z,13.45
2022-09-15T00:11:03.754Z,13.44
2022-09-15T00:13:36.085Z,13.38
2022-09-15T00:16:07.577Z,13.36
2022-09-15T00:18:39.588Z,13.31
2022-09-15T00:21:11.107Z,13.28
2022-09-15T00:23:42.938Z,13.28
2022-09-15T00:26:14.428Z,13.28
2022-09-15T00:28:46.325Z,13.27
2022-09-15T00:31:18.222Z,13.25
2022-09-15T00:33:49.862Z,13.21
2022-09-15T00:36:21.751Z,13.19
2022-09-15T00:38:53.266Z,13.19
2022-09-15T00:41:25.268Z,13.15
2022-09-15T00:43:56.930Z,13.17
2022-09-15T00:46:28.748Z,13.17
2022-09-15T00:49:00.271Z,13.17
2022-09-15T00:51:32.150Z,13.15
2022-09-15T00:54:03.641Z,13.10
2022-09-15T00:56:35.558Z,13.09
2022-09-15T00:59:07.070Z,13.08
2022-09-15T01:01:39.039Z,13.02
2022-09-15T01:04:10.852Z,13.01
2022-09-15T01:06:43.142Z,12.93
2022-09-15T01:09:14.670Z,12.91
2022-09-15T01:11:46.527Z,12.86
2022-09-15T01:14:18.029Z,12.80
2022-09-15T01:16:49.948Z,12.81
2022-09-15T01:19:21.996Z,12.79
2022-09-15T01:21:58.620Z,12.76
2022-09-15T01:24:30.465Z,12.72
2022-09-15T01:27:13.882Z,12.73
2022-09-15T01:29:54.231Z,12.70
2022-09-15T01:32:44.720Z,12.66
2022-09-15T01:35:16.317Z,12.62
2022-09-15T01:37:49.203Z,12.63
2022-09-15T01:40:20.765Z,12.59
2022-09-15T01:42:52.313Z,12.59
2022-09-15T01:45:24.245Z,12.56
2022-09-15T01:47:55.785Z,12.54
2022-09-15T01:50:28.068Z,12.55
2022-09-15T01:52:59.571Z,12.49
2022-09-15T01:55:32.353Z,12.48
2022-09-15T01:58:03.907Z,12.44
2022-09-15T02:00:35.925Z,12.40
2022-09-15T02:03:08.447Z,12.38
2022-09-15T02:05:40.407Z,12.38
2022-09-15T02:08:12.032Z,12.35
2022-09-15T02:10:44.302Z,12.37
2022-09-15T02:13:17.115Z,12.35
2022-09-15T02:15:49.079Z,12.42
2022-09-15T02:18:20.582Z,12.45
2022-09-15T02:20:52.413Z,12.49
2022-09-15T02:23:26.246Z,12.46
2022-09-15T02:25:58.202Z,12.47
2022-09-15T02:28:29.739Z,12.48
2022-09-15T02:31:01.678Z,12.52
2022-09-15T02:33:33.236Z,12.47
2022-09-15T02:36:05.136Z,12.43
2022-09-15T02:38:36.703Z,12.37
2022-09-15T02:41:08.589Z,12.36
2022-09-15T02:43:40.150Z,12.33
2022-09-15T02:46:12.045Z,12.32
2022-09-15T02:48:43.666Z,12.32
2022-09-15T02:51:15.425Z,12.30
2022-09-15T02:53:46.975Z,12.31
2022-09-15T02:56:18.943Z,12.32
2022-09-15T02:58:50.494Z,12.29
2022-09-15T03:01:23.590Z,12.26
2022-09-15T03:03:55.162Z,12.23
2022-09-15T03:06:29.686Z,12.18
2022-09-15T03:09:01.223Z,12.14
2022-09-15T03:11:33.315Z,12.13
2022-09-15T03:14:04.902Z,12.10
2022-09-15T03:16:37.170Z,12.09
2022-09-15T03:19:08.812Z,12.06
2022-09-15T03:21:41.869Z,12.03
2022-09-15T03:24:15.322Z,11.99
2022-09-15T03:26:47.200Z,11.98
2022-09-15T03:29:18.692Z,11.93
2022-09-15T03:31:50.596Z,11.87
2022-09-15T03:34:22.139Z,11.84
2022-09-15T03:36:54.027Z,11.83
2022-09-15T03:39:25.928Z,11.80
2022-09-15T03:41:57.434Z,11.76
2022-09-15T03:44:29.413Z,11.75
2022-09-15T03:47:00.922Z,11.74
2022-09-15T03:49:32.968Z,11.75
2022-09-15T03:52:04.493Z,11.76
2022-09-15T03:54:36.531Z,11.79
2022-09-15T03:57:08.116Z,11.81
2022-09-15T03:59:40.003Z,11.79
2022-09-15T04:02:11.670Z,11.78
2022-09-15T04:04:43.581Z,11.76
2022-09-15T04:07:15.152Z,11.74
2022-09-15T04:09:47.134Z,11.72
2022-09-15T04:12:18.754Z,11.72
2022-09-15T04:14:50.603Z,11.68
2022-09-15T04:17:22.691Z,11.66
2022-09-15T04:19:54.709Z,11.67
2022-09-15T04:22:26.311Z,11.67
2022-09-15T04:24:58.248Z,11.66
2022-09-15T04:27:32.078Z,11.68
2022-09-15T04:30:03.659Z,11.68
2022-09-15T04:32:35.712Z,11.69
2022-09-15T04:35:07.628Z,11.64
2022-09-15T04:37:39.754Z,11.64
2022-09-15T04:40:11.709Z,11.63
2022-09-15T04:42:43.267Z,11.61
2022-09-15T04:45:15.058Z,11.62
2022-09-15T04:47:48.425Z,11.59
2022-09-15T04:50:20.379Z,11.62
2022-09-15T04:52:52.703Z,11.59
2022-09-15T04:55:24.708Z,11.64
2022-09-15T04:57:56.200Z,11.65
2022-09-15T05:00:28.120Z,11.69
2022-09-15T05:02:59.735Z,11.74
2022-09-15T05:05:31.597Z,11.79
2022-09-15T05:08:03.404Z,11.83
2022-09-15T05:10:35.265Z,11.88
2022-09-15T05:13:06.769Z,11.89
2022-09-15T05:15:38.773Z,11.94
2022-09-15T05:18:10.335Z,11.99
2022-09-15T05:20:42.287Z,11.98
2022-09-15T05:23:13.997Z,12.01
2022-09-15T05:25:45.901Z,12.06
2022-09-15T05:28:17.977Z,12.10
2022-09-15T05:30:49.570Z,12.18
2022-09-15T05:33:21.635Z,12.26
2022-09-15T05:35:53.300Z,12.32
2022-09-15T05:38:25.083Z,12.37
2022-09-15T05:40:56.610Z,12.45
2022-09-15T05:43:28.428Z,12.52
2022-09-15T05:45:59.928Z,12.57
2022-09-15T05:48:31.719Z,12.68
2022-09-15T05:51:03.263Z,12.76
2022-09-15T05:53:35.339Z,12.88
2022-09-15T05:56:06.833Z,12.91
2022-09-15T05:58:38.657Z,13.08
2022-09-15T06:01:10.157Z,13.11
2022-09-15T06:03:42.080Z,13.13
2022-09-15T06:06:13.562Z,13.24
2022-09-15T06:08:47.993Z,13.43
2022-09-15T06:11:19.842Z,13.54
2022-09-15T06:13:52.008Z,13.65
2022-09-15T06:16:23.589Z,13.69
2022-09-15T06:18:55.476Z,13.93
2022-09-15T06:21:26.962Z,14.18
2022-09-15T06:23:59.293Z,14.32
2022-09-15T06:26:30.830Z,14.60
2022-09-15T06:29:03.035Z,15.01
2022-09-15T06:31:34.557Z,15.34
2022-09-15T06:34:07.104Z,15.72
2022-09-15T06:36:39.084Z,15.81
2022-09-15T06:39:10.998Z,15.82
2022-09-15T06:42:01.391Z,16.04
2022-09-15T06:44:34.232Z,16.15
2022-09-15T06:47:05.714Z,16.20
2022-09-15T06:49:37.558Z,16.00
2022-09-15T06:52:09.062Z,16.25
2022-09-15T06:54:40.878Z,16.04
2022-09-15T06:57:12.368Z,16.03
2022-09-15T06:59:44.863Z,15.99
2022-09-15T07:02:16.427Z,16.17
2022-09-15T07:04:48.371Z,16.44
2022-09-15T07:07:19.907Z,16.51
2022-09-15T07:09:51.711Z,16.41
2022-09-15T07:12:23.228Z,16.25
2022-09-15T07:14:55.149Z,16.55
2022-09-15T07:17:27.217Z,16.39
2022-09-15T07:19:59.105Z,16.62
2022-09-15T07:22:30.685Z,16.67
2022-09-15T07:25:02.682Z,16.35
2022-09-15T07:27:34.178Z,16.54
2022-09-15T07:30:08.830Z,16.87
2022-09-15T07:32:40.339Z,17.02
2022-09-15T07:35:12.926Z,17.01
2022-09-15T07:37:44.744Z,17.00
2022-09-15T07:40:17.062Z,17.15
2022-09-15T07:42:48.673Z,17.32
2022-09-15T07:45:20.415Z,17.06
2022-09-15T07:47:51.995Z,17.33
2022-09-15T07:50:23.883Z,17.38
2022-09-15T07:52:55.359Z,17.21
2022-09-15T07:55:27.194Z,17.26
2022-09-15T07:57:59.160Z,17.38
2022-09-15T08:00:31.684Z,17.13
2022-09-15T08:03:03.238Z,17.20
2022-09-15T08:05:39.414Z,17.21
2022-09-15T08:08:12.819Z,17.37
2022-09-15T08:10:44.659Z,17.42
2022-09-15T08:13:16.669Z,17.53
2022-09-15T08:15:48.292Z,17.92
2022-09-15T08:18:20.284Z,18.29
2022-09-15T08:20:51.901Z,18.33
2022-09-15T08:23:23.814Z,18.18
2022-09-15T08:25:55.365Z,18.04
2022-09-15T08:28:27.174Z,18.13
2022-09-15T08:30:59.907Z,17.87
2022-09-15T08:33:31.806Z,18.03
2022-09-15T08:36:03.310Z,17.83
2022-09-15T08:38:35.157Z,17.96
2022-09-15T08:41:06.641Z,18.41
2022-09-15T08:43:38.482Z,18.30
2022-09-15T08:46:10.036Z,18.73
2022-09-15T08:48:41.894Z,18.84
2022-09-15T08:51:13.395Z,18.49
2022-09-15T08:53:45.869Z,18.52
2022-09-15T08:56:17.620Z,18.57
2022-09-15T08:58:49.624Z,18.44
2022-09-15T09:01:21.160Z,18.59
2022-09-15T09:03:53.313Z,18.69
2022-09-15T09:06:24.806Z,18.58
2022-09-15T09:08:56.769Z,18.70
2022-09-15T09:11:28.269Z,18.66
2022-09-15T09:14:00.140Z,18.86
2022-09-15T09:16:31.646Z,18.60
2022-09-15T09:19:04.096Z,18.70
2022-09-15T09:21:35.587Z,18.73
2022-09-15T09:24:07.619Z,18.74
2022-09-15T09:26:39.913Z,18.50
2022-09-15T09:29:12.019Z,18.77
2022-09-15T09:31:43.584Z,18.88
2022-09-15T09:34:15.542Z,19.10
2022-09-15T09:36:47.140Z,19.27
2022-09-15T09:39:19.072Z,19.41
2022-09-15T09:41:51.590Z,19.66
2022-09-15T09:44:31.685Z,19.46
2022-09-15T09:47:04.380Z,19.61
2022-09-15T09:49:35.893Z,19.33
2022-09-15T09:52:07.729Z,19.59
2022-09-15T09:54:39.282Z,19.50
2022-09-15T09:57:11.227Z,19.59
2022-09-15T09:59:42.733Z,19.44
2022-09-15T10:02:14.737Z,19.98
2022-09-15T10:04:46.285Z,20.12
2022-09-15T10:07:18.199Z,20.19
2022-09-15T10:09:50.348Z,20.23
2022-09-15T10:12:22.218Z,20.26
2022-09-15T10:14:53.763Z,20.38
2022-09-15T10:17:25.764Z,20.77
2022-09-15T10:19:57.270Z,20.69
2022-09-15T10:22:29.414Z,20.36
2022-09-15T10:25:01.085Z,20.30
2022-09-15T10:27:32.977Z,20.45
2022-09-15T10:30:04.496Z,20.33
2022-09-15T10:32:36.401Z,20.12
2022-09-15T10:35:07.924Z,20.44
2022-09-15T10:37:39.957Z,21.52
2022-09-15T10:40:11.578Z,22.58
2022-09-15T10:42:43.400Z,22.10
2022-09-15T10:45:14.939Z,21.33
2022-09-15T10:47:46.865Z,21.57
2022-09-15T10:50:18.719Z,21.73
2022-09-15T10:52:50.230Z,22.41
2022-09-15T10:55:36.770Z,22.73
2022-09-15T10:58:13.506Z,23.04
2022-09-15T11:00:45.563Z,23.27
2022-09-15T11:03:17.089Z,23.21
2022-09-15T11:05:49.111Z,23.55
2022-09-15T11:08:20.673Z,23.51
2022-09-15T11:10:52.528Z,23.30
2022-09-15T11:13:24.027Z,23.57
2022-09-15T11:15:56.930Z,23.56
2022-09-15T11:18:28.484Z,22.73
2022-09-15T11:21:00.366Z,22.98
2022-09-15T11:23:32.692Z,22.87
2022-09-15T11:26:04.550Z,22.68
2022-09-15T11:28:36.030Z,22.52
2022-09-15T11:31:07.960Z,22.22
2022-09-15T11:33:39.509Z,22.25
2022-09-15T11:36:11.371Z,22.76
2022-09-15T11:38:43.092Z,23.15
2022-09-15T11:41:15.006Z,23.88
2022-09-15T11:43:46.562Z,23.72
2022-09-15T11:46:18.459Z,22.90
2022-09-15T11:48:50.203Z,22.56
2022-09-15T11:51:22.224Z,22.71
2022-09-15T11:53:53.784Z,22.42
2022-09-15T11:56:25.724Z,21.59
2022-09-15T11:58:57.242Z,22.07
2022-09-15T12:01:29.288Z,22.39
2022-09-15T12:04:02.193Z,21.79
2022-09-15T12:06:34.021Z,20.88
2022-09-15T12:09:05.532Z,20.62
2022-09-15T12:11:37.338Z,20.82
2022-09-15T12:14:08.883Z,20.84
2022-09-15T12:16:40.836Z,20.43
2022-09-15T12:19:12.341Z,20.44
2022-09-15T12:21:44.423Z,20.81
2022-09-15T12:24:16.442Z,20.71
2022-09-15T12:26:48.245Z,20.41
2022-09-15T12:29:19.731Z,20.12
2022-09-15T12:31:51.569Z,19.92
2022-09-15T12:34:23.186Z,19.33
2022-09-15T12:36:55.266Z,19.66
2022-09-15T12:39:26.786Z,19.54
2022-09-15T12:41:58.581Z,20.23
2022-09-15T12:44:30.895Z,20.29
2022-09-15T12:47:02.944Z,20.25
2022-09-15T12:49:34.443Z,20.08
2022-09-15T12:52:06.331Z,20.43
2022-09-15T12:54:38.326Z,20.46
2022-09-15T12:57:09.809Z,20.49
2022-09-15T12:59:41.602Z,20.56
2022-09-15T13:02:13.174Z,20.38
2022-09-15T13:04:45.368Z,20.24
2022-09-15T13:07:17.251Z,20.70
2022-09-15T13:09:49.084Z,20.68
2022-09-15T13:12:20.598Z,21.31
2022-09-15T13:14:52.513Z,22.39
2022-09-15T13:17:23.997Z,22.48
2022-09-15T13:19:55.830Z,22.13
2022-09-15T13:22:27.441Z,22.36
2022-09-15T13:25:01.802Z,22.27
2022-09-15T13:27:33.613Z,22.68
2022-09-15T13:30:05.532Z,21.94
2022-09-15T13:32:37.035Z,21.56
2022-09-15T13:35:15.206Z,21.66
2022-09-15T13:40:41.456Z,22.52
2022-09-15T13:43:13.042Z,22.36
2022-09-15T13:45:44.956Z,21.93
2022-09-15T13:48:16.718Z,22.50
2022-09-15T13:50:48.699Z,21.79
2022-09-15T13:53:24.144Z,21.37
2022-09-15T13:55:56.103Z,20.64
2022-09-15T14:01:19.589Z,21.36
2022-09-15T14:03:51.592Z,22.16
2022-09-15T14:06:23.247Z,22.54
2022-09-15T14:08:55.082Z,22.69
2022-09-15T14:11:26.615Z,22.02
2022-09-15T14:13:59.488Z,22.12
2022-09-15T14:16:31.145Z,21.96
2022-09-15T14:19:04.117Z,21.48
2022-09-15T14:21:36.199Z,21.24
2022-09-15T14:24:08.059Z,20.81
2022-09-15T14:26:39.621Z,20.66
2022-09-15T14:29:11.426Z,21.17
2022-09-15T14:31:42.991Z,22.01
2022-09-15T14:34:14.868Z,21.67
2022-09-15T14:36:46.336Z,21.13
2022-09-15T14:39:18.234Z,22.11
2022-09-15T14:41:50.037Z,20.91
2022-09-15T14:47:13.705Z,21.89
2022-09-15T14:49:45.547Z,22.40
2022-09-15T14:52:17.146Z,23.00
2022-09-15T14:54:49.068Z,23.13
2022-09-15T14:57:20.604Z,22.06
2022-09-15T14:59:52.994Z,22.70
2022-09-15T15:02:24.530Z,23.25
2022-09-15T15:04:57.758Z,22.98
2022-09-15T15:07:29.279Z,22.65
2022-09-15T15:10:01.112Z,22.14
2022-09-15T15:12:32.629Z,22.55
2022-09-15T15:15:04.567Z,21.50
2022-09-15T15:17:36.082Z,21.09
2022-09-15T15:20:07.944Z,20.04
2022-09-15T15:22:39.438Z,20.32
2022-09-15T15:25:11.361Z,20.09
2022-09-15T15:27:42.891Z,19.88
2022-09-15T15:30:14.765Z,20.07
2022-09-15T15:32:46.257Z,19.74
2022-09-15T15:35:18.247Z,19.58
2022-09-15T15:37:49.856Z,19.23
2022-09-15T15:40:23.477Z,19.19
2022-09-15T15:42:59.393Z,18.88
2022-09-15T15:45:32.092Z,18.66
2022-09-15T15:48:04.286Z,18.34
2022-09-15T15:50:36.354Z,18.26
2022-09-15T15:53:08.156Z,18.15
2022-09-15T15:55:39.651Z,18.03
2022-09-15T15:58:11.448Z,17.50
2022-09-15T16:00:44.209Z,17.48
2022-09-15T16:03:16.373Z,17.45
2022-09-15T16:05:47.899Z,17.12
2022-09-15T16:08:19.881Z,17.18
2022-09-15T16:10:51.635Z,17.41
2022-09-15T16:13:23.302Z,17.32
2022-09-15T16:15:56.583Z,17.05
2022-09-15T16:18:28.653Z,16.90
2022-09-15T16:21:00.156Z,16.93
2022-09-15T16:23:31.957Z,16.95
2022-09-15T16:26:03.465Z,16.82
2022-09-15T16:28:35.052Z,16.83
2022-09-15T16:31:06.577Z,16.76
2022-09-15T16:33:38.616Z,16.73
2022-09-15T16:36:12.230Z,16.62
2022-09-15T16:38:44.179Z,16.56
2022-09-15T16:41:15.726Z,16.46
2022-09-15T16:43:47.564Z,16.54
2022-09-15T16:46:19.115Z,16.50
2022-09-15T16:48:51.007Z,16.48
2022-09-15T16:51:28.938Z,16.28
2022-09-15T16:54:03.102Z,16.19
2022-09-15T16:56:34.583Z,16.12
2022-09-15T16:59:06.716Z,16.08
2022-09-15T17:01:38.256Z,16.08
2022-09-15T17:04:10.115Z,15.95
2022-09-15T17:06:41.613Z,15.93
2022-09-15T17:09:13.422Z,15.85
2022-09-15T17:11:44.933Z,15.89
2022-09-15T17:14:18.508Z,15.98
2022-09-15T17:16:52.801Z,15.95
2022-09-15T17:19:24.675Z,15.76
2022-09-15T17:21:56.172Z,15.62
2022-09-15T17:24:27.697Z,15.45
2022-09-15T17:26:59.245Z,15.44
2022-09-15T17:29:31.017Z,15.36
2022-09-15T17:32:02.515Z,15.23
2022-09-15T17:34:34.500Z,15.28
2022-09-15T17:37:05.986Z,15.26
2022-09-15T17:39:37.826Z,15.21
2022-09-15T17:42:09.327Z,15.19
2022-09-15T17:44:41.146Z,15.20
2022-09-15T17:47:12.726Z,15.10
2022-09-15T17:49:44.539Z,15.04
2022-09-15T17:52:16.105Z,15.06
2022-09-15T17:54:47.904Z,14.93
2022-09-15T17:57:19.425Z,14.95
2022-09-15T17:59:50.927Z,14.90
2022-09-15T18:02:22.609Z,14.78
2022-09-15T18:04:54.475Z,14.82
2022-09-15T18:07:25.971Z,14.86
2022-09-15T18:09:57.561Z,14.75
2022-09-15T18:12:29.131Z,14.70
2022-09-15T18:15:00.625Z,14.69
2022-09-15T18:17:32.116Z,14.64
2022-09-15T18:20:04.240Z,14.61
2022-09-15T18:22:35.757Z,14.65
2022-09-15T18:25:07.929Z,14.62
2022-09-15T18:27:39.435Z,14.64
2022-09-15T18:30:11.488Z,14.60
2022-09-15T18:32:42.982Z,14.54
2022-09-15T18:35:18.330Z,14.35
2022-09-15T18:37:50.206Z,14.32
2022-09-15T18:40:22.053Z,14.27
2022-09-15T18:42:53.670Z,14.23
2022-09-15T18:45:25.444Z,14.21
2022-09-15T18:47:57.399Z,14.17
2022-09-15T18:50:28.954Z,13.34
2022-09-15T18:53:00.963Z,13.21
2022-09-15T18:55:32.669Z,14.08
2022-09-15T18:58:04.549Z,14.06
2022-09-15T19:03:14.507Z,14.00
2022-09-15T19:05:46.072Z,14.00
2022-09-15T19:08:17.970Z,14.01
2022-09-15T19:10:49.461Z,14.04
2022-09-15T19:13:21.377Z,14.08
2022-09-15T19:15:53.591Z,14.11
2022-09-15T19:18:25.490Z,14.13
2022-09-15T19:20:56.995Z,14.17
2022-09-15T19:23:28.847Z,14.15
2022-09-15T19:26:00.335Z,14.18
2022-09-15T19:31:22.249Z,14.23
2022-09-15T19:33:54.342Z,14.25
2022-09-15T19:36:29.403Z,14.25
2022-09-15T19:39:03.858Z,14.21
2022-09-15T19:41:35.349Z,14.23
2022-09-15T19:44:10.607Z,14.21
2022-09-15T19:46:42.508Z,14.23
2022-09-15T19:49:14.055Z,14.06
2022-09-15T19:51:45.585Z,14.11
2022-09-15T19:54:17.411Z,14.12
2022-09-15T19:56:48.964Z,14.16
2022-09-15T19:59:20.873Z,14.18
2022-09-15T20:01:52.428Z,14.13
2022-09-15T20:04:24.261Z,14.16
2022-09-15T20:06:55.778Z,14.17
2022-09-15T20:09:27.659Z,14.11
2022-09-15T20:12:03.032Z,14.12
2022-09-15T20:14:34.901Z,14.06
2022-09-15T20:17:06.408Z,14.03
2022-09-15T20:19:38.577Z,14.03
2022-09-15T20:22:10.099Z,14.06
2022-09-15T20:24:41.974Z,14.05
2022-09-15T20:27:14.027Z,14.04
2022-09-15T20:29:46.011Z,13.96
2022-09-15T20:32:17.543Z,14.00
2022-09-15T20:34:49.445Z,13.95
2022-09-15T20:37:22.992Z,13.96
2022-09-15T20:39:54.884Z,13.92
2022-09-15T20:42:26.399Z,13.91
2022-09-15T20:44:58.261Z,13.84
2022-09-15T20:47:29.743Z,13.72
2022-09-15T20:50:01.625Z,13.65
2022-09-15T20:52:38.044Z,13.62
2022-09-15T20:55:10.364Z,13.55
2022-09-15T20:57:41.852Z,13.49
2022-09-15T21:00:13.692Z,13.47
2022-09-15T21:02:45.765Z,13.44
2022-09-15T21:05:17.314Z,13.43
2022-09-15T21:07:49.277Z,13.40
2022-09-15T21:10:24.802Z,13.38
2022-09-15T21:12:56.661Z,13.35
2022-09-15T21:15:28.137Z,13.32
2022-09-15T21:18:00.060Z,13.31
2022-09-15T21:20:31.553Z,13.29
2022-09-15T21:23:04.284Z,13.28
2022-09-15T21:25:35.776Z,13.35
2022-09-15T21:28:08.080Z,13.38
2022-09-15T21:30:39.805Z,13.40
2022-09-15T21:33:11.319Z,13.39
2022-09-15T21:35:42.791Z,13.45
2022-09-15T21:38:14.298Z,13.44
2022-09-15T21:40:45.898Z,13.45
2022-09-15T21:43:17.843Z,13.43
2022-09-15T21:45:49.361Z,13.42
2022-09-15T21:48:21.385Z,13.41
2022-09-15T21:50:52.881Z,13.39
2022-09-15T21:53:24.390Z,13.39
2022-09-15T21:55:56.532Z,13.33
2022-09-15T21:58:38.961Z,13.40
2022-09-15T22:01:13.929Z,13.36
2022-09-15T22:03:45.541Z,13.32
2022-09-15T22:06:17.227Z,12.15
2022-09-15T22:08:49.289Z,13.23
2022-09-15T22:11:20.809Z,13.17
2022-09-15T22:13:52.581Z,13.12
2022-09-15T22:16:24.102Z,13.09
2022-09-15T22:18:56.226Z,13.04
2022-09-15T22:21:27.719Z,13.01
2022-09-15T22:23:59.684Z,12.96
2022-09-15T22:26:31.183Z,12.92
2022-09-15T22:29:03.063Z,12.92
2022-09-15T22:31:34.654Z,12.86
2022-09-15T22:34:06.501Z,12.85
2022-09-15T22:36:37.995Z,12.86
2022-09-15T22:39:09.997Z,12.83
2022-09-15T22:41:41.528Z,12.81
2022-09-15T22:44:13.355Z,12.79
2022-09-15T22:46:44.849Z,12.79
2022-09-15T22:49:16.705Z,12.79
2022-09-15T22:51:48.214Z,12.79
2022-09-15T22:54:20.226Z,12.73
2022-09-15T22:56:51.736Z,12.77
2022-09-15T22:59:23.567Z,12.77
2022-09-15T23:01:55.107Z,12.77
2022-09-15T23:04:26.958Z,12.83
2022-09-15T23:06:58.506Z,12.87
2022-09-15T23:09:30.375Z,12.86
2022-09-15T23:12:01.859Z,12.81
2022-09-15T23:14:33.674Z,12.82
2022-09-15T23:17:05.216Z,12.79
2022-09-15T23:19:37.125Z,12.76
2022-09-15T23:22:08.612Z,12.71
2022-09-15T23:24:40.429Z,12.65
2022-09-15T23:27:11.919Z,12.62
2022-09-15T23:29:43.917Z,12.58
2022-09-15T23:32:15.422Z,12.55
2022-09-15T23:34:47.261Z,12.48
2022-09-15T23:37:18.767Z,12.45
2022-09-15T23:39:50.639Z,12.41
2022-09-15T23:42:22.155Z,12.38
2022-09-15T23:44:53.916Z,12.37
2022-09-15T23:47:25.435Z,12.31
2022-09-15T23:49:57.431Z,12.32
2022-09-15T23:52:28.937Z,12.32
2022-09-15T23:55:00.800Z,12.29
2022-09-15T23:57:32.277Z,12.25
